Time;durP1;ratioP1;P1;durP2;ratioP2;P2;SDS_P1;SDS_P2;PMS_P1;PMS_P2;Temp;Humidity;BMP_temperature;BMP_pressure;BME280_temperature;BME280_humidity;BME280_pressure;Samples;Min_cycle;Max_cycle;Signal;HPM_P1;HPM_P2
2024/03/19 00:00:12;;;;;;;32.00;12.73;;;0.40;99.90;;;;;;4440999;27;658487;-70
2024/03/19 00:02:59;;;;;;;33.00;13.93;;;0.30;99.90;;;;;;4448083;27;657662;-70
2024/03/19 00:05:46;;;;;;;33.73;14.20;;;0.30;99.90;;;;;;4468655;27;657462;-70
2024/03/19 00:08:33;;;;;;;41.80;16.07;;;0.30;99.90;;;;;;4451581;27;657898;-71
2024/03/19 00:11:20;;;;;;;42.33;16.03;;;0.10;1.00;;;;;;4474204;27;658476;-70
2024/03/19 00:14:09;;;;;;;33.67;15.73;;;0.10;1.00;;;;;;4444083;27;656973;-70
2024/03/19 00:16:56;;;;;;;39.00;16.90;;;0.00;15.80;;;;;;4477956;27;656397;-70
2024/03/19 00:19:43;;;;;;;37.05;16.73;;;0.00;99.90;;;;;;4452841;27;657645;-70
2024/03/19 00:22:32;;;;;;;39.03;15.93;;;0.00;99.90;;;;;;4472399;27;658044;-70
2024/03/19 00:25:19;;;;;;;36.33;15.53;;;0.00;99.90;;;;;;4449908;27;658402;-70
2024/03/19 00:28:07;;;;;;;36.57;15.93;;;0.10;99.90;;;;;;4475578;27;657228;-70
2024/03/19 00:30:56;;;;;;;38.87;16.30;;;0.00;1.00;;;;;;4444521;27;658963;-70
2024/03/19 00:33:43;;;;;;;38.27;16.30;;;0.00;1.00;;;;;;4449553;27;656745;-70
2024/03/19 00:36:30;;;;;;;44.57;17.10;;;-0.10;21.50;;;;;;4467519;27;657020;-71
2024/03/19 00:39:21;;;;;;;37.63;16.25;;;0.00;99.90;;;;;;4451364;27;658259;-70
2024/03/19 00:42:09;;;;;;;38.90;16.53;;;0.10;99.90;;;;;;4452359;27;658340;-71
2024/03/19 00:44:57;;;;;;;36.50;14.47;;;0.10;1.00;;;;;;4475187;27;658029;-70
2024/03/19 00:47:45;;;;;;;41.67;16.03;;;0.10;1.00;;;;;;4455461;27;658312;-70
2024/03/19 00:50:33;;;;;;;39.00;16.47;;;0.10;1.00;;;;;;4458870;27;656863;-70
2024/03/19 00:53:20;;;;;;;43.53;16.90;;;0.10;1.00;;;;;;4469245;27;657286;-70
2024/03/19 00:56:07;;;;;;;41.10;17.13;;;0.10;1.00;;;;;;4471747;27;656466;-70
2024/03/19 00:58:55;;;;;;;41.73;17.83;;;0.10;1.00;;;;;;4483683;27;657918;-70
2024/03/19 01:01:42;;;;;;;41.27;16.97;;;0.10;52.50;;;;;;4469179;27;657121;-71
2024/03/19 01:04:31;;;;;;;38.67;16.70;;;0.10;1.00;;;;;;4475302;27;658358;-70
2024/03/19 01:07:19;;;;;;;35.77;13.90;;;0.10;6.20;;;;;;4449303;27;656279;-70
2024/03/19 01:10:08;;;;;;;42.83;18.07;;;0.00;99.90;;;;;;4472112;27;656427;-70
2024/03/19 01:12:55;;;;;;;40.03;16.77;;;0.00;1.00;;;;;;4444765;27;658090;-70
2024/03/19 01:15:42;;;;;;;43.50;17.93;;;0.00;58.20;;;;;;4454531;27;656445;-70
2024/03/19 01:18:30;;;;;;;39.45;16.35;;;-0.10;99.90;;;;;;4467053;28;658572;-70
2024/03/19 01:21:18;;;;;;;44.00;15.60;;;0.00;99.90;;;;;;4469133;27;658762;-70
2024/03/19 01:24:06;;;;;;;38.80;16.23;;;0.00;99.90;;;;;;4450102;27;659099;-70
2024/03/19 01:26:53;;;;;;;42.37;16.53;;;0.10;99.90;;;;;;4448183;28;657638;-70
2024/03/19 01:29:41;;;;;;;44.87;17.13;;;0.00;99.90;;;;;;4474016;28;658229;-70
2024/03/19 01:32:28;;;;;;;45.87;16.40;;;0.00;99.90;;;;;;4448439;27;657673;-70
2024/03/19 01:35:15;;;;;;;42.10;17.03;;;0.00;99.90;;;;;;4477277;28;658161;-70
2024/03/19 01:38:04;;;;;;;38.97;17.03;;;0.10;99.90;;;;;;4451938;28;657875;-70
2024/03/19 01:40:51;;;;;;;44.13;14.63;;;0.10;1.00;;;;;;4466595;28;657822;-70
2024/03/19 01:43:40;;;;;;;48.07;17.83;;;0.10;1.00;;;;;;4451582;28;657085;-70
2024/03/19 01:46:28;;;;;;;42.33;15.67;;;0.10;1.00;;;;;;4462647;27;657334;-70
2024/03/19 01:49:15;;;;;;;41.77;16.90;;;0.10;99.90;;;;;;4462129;28;656963;-70
2024/03/19 01:52:03;;;;;;;47.40;17.50;;;0.10;43.30;;;;;;4447834;28;657980;-70
2024/03/19 01:54:51;;;;;;;40.90;15.80;;;0.20;99.90;;;;;;4475175;28;658336;-70
2024/03/19 01:57:38;;;;;;;41.53;16.80;;;0.20;60.90;;;;;;4448093;28;657303;-70
2024/03/19 02:00:25;;;;;;;46.37;18.13;;;0.20;1.00;;;;;;4468482;28;657189;-70
2024/03/19 02:03:13;;;;;;;40.13;16.63;;;0.20;1.00;;;;;;4449352;27;656761;-71
2024/03/19 02:06:00;;;;;;;42.23;16.93;;;0.10;32.60;;;;;;4467357;27;656802;-70
2024/03/19 02:09:00;;;;;;;40.72;15.95;;;0.20;62.20;;;;;;4453613;27;658058;-70
2024/03/19 02:11:49;;;;;;;44.13;17.20;;;0.20;1.00;;;;;;4450749;27;657459;-70
2024/03/19 02:14:36;;;;;;;37.47;16.53;;;0.20;1.00;;;;;;4466526;27;656630;-70
2024/03/19 02:17:23;;;;;;;40.27;16.53;;;0.20;99.90;;;;;;4455587;27;656779;-70
2024/03/19 02:20:14;;;;;;;40.47;16.47;;;0.20;93.50;;;;;;4465226;27;657642;-70
2024/03/19 02:23:03;;;;;;;39.17;15.23;;;0.20;99.90;;;;;;4445254;27;657977;-70
2024/03/19 02:25:51;;;;;;;42.83;16.57;;;0.30;99.90;;;;;;4451284;27;657974;-70
2024/03/19 02:28:38;;;;;;;40.97;15.67;;;0.30;1.00;;;;;;4452859;27;658213;-70
2024/03/19 02:31:27;;;;;;;39.13;15.50;;;0.30;1.00;;;;;;4476166;27;657805;-70
2024/03/19 02:34:14;;;;;;;44.03;16.70;;;0.20;1.00;;;;;;4443470;27;657246;-70
2024/03/19 02:37:02;;;;;;;44.57;17.77;;;0.20;1.00;;;;;;4466381;27;656489;-70
2024/03/19 02:39:50;;;;;;;37.83;17.07;;;0.20;99.90;;;;;;4456354;27;656339;-70
2024/03/19 02:42:37;;;;;;;47.87;18.17;;;0.20;99.90;;;;;;4455812;27;658162;-71
2024/03/19 02:45:26;;;;;;;43.40;17.37;;;0.10;99.90;;;;;;4468931;27;658600;-70
2024/03/19 02:48:14;;;;;;;40.47;17.17;;;0.10;99.90;;;;;;4456808;27;657504;-70
2024/03/19 02:51:01;;;;;;;46.63;17.43;;;0.20;99.90;;;;;;4467463;27;657908;-70
2024/03/19 02:53:48;;;;;;;45.78;17.90;;;0.20;99.90;;;;;;4445828;27;657360;-70
2024/03/19 02:56:37;;;;;;;39.67;15.13;;;0.20;99.90;;;;;;4479981;27;658462;-70
2024/03/19 02:59:24;;;;;;;43.33;15.70;;;0.30;51.90;;;;;;4452395;27;658035;-70
2024/03/19 03:02:11;;;;;;;48.17;16.90;;;0.30;29.10;;;;;;4471207;27;657014;-70
2024/03/19 03:04:58;;;;;;;45.40;17.43;;;0.20;30.40;;;;;;4455455;27;657594;-70
2024/03/19 03:07:45;;;;;;;47.78;17.77;;;0.20;78.10;;;;;;4472892;27;657416;-70
2024/03/19 03:10:33;;;;;;;48.30;17.97;;;0.20;99.90;;;;;;4453584;27;657570;-71
2024/03/19 03:13:22;;;;;;;46.00;17.13;;;0.30;99.90;;;;;;4468366;27;658550;-71
2024/03/19 03:16:09;;;;;;;50.27;19.40;;;0.30;99.90;;;;;;4448076;27;657548;-71
2024/03/19 03:18:57;;;;;;;53.97;18.87;;;0.30;1.00;;;;;;4476404;27;657468;-70
2024/03/19 03:21:44;;;;;;;51.77;16.63;;;0.30;99.90;;;;;;4453066;27;657132;-70
2024/03/19 03:24:31;;;;;;;44.43;18.07;;;0.30;99.90;;;;;;4473769;27;657310;-70
2024/03/19 03:27:19;;;;;;;40.80;16.60;;;0.30;60.50;;;;;;4453372;27;657746;-70
2024/03/19 03:30:10;;;;;;;43.37;16.37;;;0.30;99.90;;;;;;4470639;27;657967;-70
2024/03/19 03:32:57;;;;;;;45.27;16.03;;;0.30;99.90;;;;;;4440217;27;657775;-70
2024/03/19 03:35:45;;;;;;;46.20;18.53;;;0.30;99.90;;;;;;4481608;27;657444;-70
2024/03/19 03:38:32;;;;;;;42.23;16.67;;;0.30;99.90;;;;;;4478300;27;657480;-70
2024/03/19 03:41:20;;;;;;;42.87;17.73;;;0.30;1.00;;;;;;4479434;27;658784;-70
2024/03/19 03:44:07;;;;;;;46.07;18.33;;;0.20;1.00;;;;;;4480987;27;656701;-70
2024/03/19 03:46:55;;;;;;;49.17;18.40;;;0.20;1.00;;;;;;4452084;27;657932;-71
2024/03/19 03:49:43;;;;;;;42.97;16.53;;;0.40;1.00;;;;;;4456531;27;656670;-70
2024/03/19 03:52:32;;;;;;;49.10;18.13;;;0.40;99.90;;;;;;4479309;27;658057;-70
2024/03/19 03:55:20;;;;;;;44.20;18.50;;;0.30;99.90;;;;;;4451466;27;658540;-70
2024/03/19 03:58:07;;;;;;;48.87;17.90;;;0.20;99.90;;;;;;4463725;27;658196;-70
2024/03/19 04:00:56;;;;;;;48.67;17.57;;;0.30;99.90;;;;;;4467787;27;658080;-70
2024/03/19 04:03:44;;;;;;;45.30;16.93;;;0.20;99.90;;;;;;4452582;27;657909;-70
2024/03/19 04:06:32;;;;;;;43.37;14.67;;;0.30;99.90;;;;;;4473724;27;657139;-70
2024/03/19 04:09:20;;;;;;;39.30;17.27;;;0.30;99.90;;;;;;4448406;27;658073;-71
2024/03/19 04:12:08;;;;;;;44.80;17.70;;;0.20;99.90;;;;;;4463772;27;657511;-70
2024/03/19 04:14:55;;;;;;;48.10;18.45;;;0.20;99.90;;;;;;4479788;27;657935;-70
2024/03/19 04:17:43;;;;;;;45.37;18.00;;;0.30;1.00;;;;;;4453782;27;658210;-70
2024/03/19 04:20:31;;;;;;;38.30;15.30;;;0.20;1.00;;;;;;4470028;27;657657;-70
2024/03/19 04:23:18;;;;;;;42.80;17.08;;;0.30;1.00;;;;;;4451395;27;656417;-70
2024/03/19 04:26:06;;;;;;;41.07;16.13;;;0.30;99.90;;;;;;4470429;27;656453;-70
2024/03/19 04:28:53;;;;;;;44.07;17.17;;;0.30;99.90;;;;;;4454390;27;658594;-70
2024/03/19 04:31:41;;;;;;;48.30;18.50;;;0.30;99.90;;;;;;4469207;27;657546;-71
2024/03/19 04:34:28;;;;;;;50.37;18.67;;;0.30;99.90;;;;;;4452453;27;657438;-71
2024/03/19 04:37:17;;;;;;;40.63;17.40;;;0.30;1.00;;;;;;4466861;27;658769;-70
2024/03/19 04:40:05;;;;;;;52.00;19.23;;;0.40;1.00;;;;;;4455494;27;657143;-70
2024/03/19 04:42:53;;;;;;;40.87;17.57;;;0.40;99.90;;;;;;4463243;27;656619;-70
2024/03/19 04:45:41;;;;;;;39.30;16.20;;;0.40;1.00;;;;;;4472857;27;657647;-71
2024/03/19 04:48:28;;;;;;;44.80;19.27;;;0.40;1.00;;;;;;4448040;27;657096;-71
2024/03/19 04:51:17;;;;;;;51.87;19.07;;;0.30;99.90;;;;;;4465777;27;656486;-70
2024/03/19 04:54:06;;;;;;;49.70;17.67;;;0.20;1.00;;;;;;4451642;27;658453;-71
2024/03/19 04:56:54;;;;;;;43.37;18.23;;;0.30;1.00;;;;;;4453773;27;656366;-71
2024/03/19 04:59:41;;;;;;;43.08;17.95;;;0.30;1.00;;;;;;4479135;27;656401;-70
2024/03/19 05:02:29;;;;;;;44.43;17.90;;;0.40;1.00;;;;;;4452279;27;657268;-70
2024/03/19 05:05:16;;;;;;;50.73;18.80;;;0.40;1.00;;;;;;4476802;27;657084;-70
2024/03/19 05:08:04;;;;;;;48.35;17.23;;;0.40;99.90;;;;;;4460091;27;656467;-71
2024/03/19 05:10:52;;;;;;;46.67;18.60;;;0.40;99.90;;;;;;4461412;27;657446;-71
2024/03/19 05:13:40;;;;;;;46.20;19.03;;;0.50;99.90;;;;;;4439924;27;657648;-70
2024/03/19 05:16:27;;;;;;;39.53;16.73;;;0.30;99.90;;;;;;4461457;28;657386;-70
2024/03/19 05:19:14;;;;;;;44.57;18.03;;;0.40;1.00;;;;;;4480375;27;657548;-71
2024/03/19 05:22:02;;;;;;;42.47;18.93;;;0.40;1.00;;;;;;4473636;27;656606;-70
2024/03/19 05:24:49;;;;;;;44.27;17.40;;;0.40;99.90;;;;;;4459292;27;656204;-71
2024/03/19 05:27:39;;;;;;;45.90;18.40;;;0.40;99.90;;;;;;4472315;27;657859;-70
2024/03/19 05:30:30;;;;;;;44.63;19.13;;;0.40;99.90;;;;;;4440351;28;658339;-70
2024/03/19 05:33:17;;;;;;;37.93;17.07;;;0.50;99.90;;;;;;4452786;28;657695;-70
2024/03/19 05:36:04;;;;;;;43.37;18.17;;;0.50;1.00;;;;;;4455643;28;658809;-71
2024/03/19 05:38:52;;;;;;;43.10;17.50;;;0.50;99.90;;;;;;4476134;27;656574;-71
2024/03/19 05:41:39;;;;;;;40.43;17.10;;;0.60;1.00;;;;;;4454741;27;659121;-71
2024/03/19 05:44:28;;;;;;;42.20;18.30;;;0.70;1.00;;;;;;4475922;27;656598;-70
2024/03/19 05:47:16;;;;;;;41.33;18.30;;;0.80;99.90;;;;;;4442170;27;656636;-71
2024/03/19 05:50:04;;;;;;;41.20;16.67;;;0.70;99.90;;;;;;4456171;27;657402;-70
2024/03/19 05:52:52;;;;;;;39.58;17.45;;;0.80;1.00;;;;;;4468999;27;657594;-70
2024/03/19 05:55:39;;;;;;;43.23;17.57;;;0.90;17.60;;;;;;4459172;27;657347;-70
2024/03/19 05:58:26;;;;;;;47.23;19.47;;;0.90;1.00;;;;;;4471658;27;657514;-70
2024/03/19 06:01:14;;;;;;;44.03;19.30;;;1.00;1.00;;;;;;4450372;27;656331;-71
2024/03/19 06:04:04;;;;;;;37.23;16.83;;;1.10;1.00;;;;;;4477373;27;656830;-70
2024/03/19 06:06:51;;;;;;;37.80;16.40;;;1.10;99.90;;;;;;4458241;27;656575;-70
2024/03/19 06:09:43;;;;;;;46.57;18.10;;;1.20;99.90;;;;;;4449813;27;658114;-70
2024/03/19 06:12:30;;;;;;;41.00;18.60;;;1.30;99.90;;;;;;4452533;27;658161;-70
2024/03/19 06:15:18;;;;;;;44.95;19.27;;;1.30;61.80;;;;;;4451322;27;657584;-70
2024/03/19 06:18:07;;;;;;;33.20;15.03;;;1.40;1.00;;;;;;4467274;27;658597;-71
2024/03/19 06:20:54;;;;;;;34.40;15.77;;;1.50;1.00;;;;;;4451400;27;657280;-71
2024/03/19 06:23:41;;;;;;;33.13;15.80;;;1.50;1.00;;;;;;4477753;27;656728;-71
2024/03/19 06:26:28;;;;;;;31.23;15.07;;;1.60;1.00;;;;;;4452834;27;656799;-71
2024/03/19 06:29:15;;;;;;;31.70;15.15;;;1.70;99.90;;;;;;4473932;27;657353;-71
2024/03/19 06:32:03;;;;;;;34.17;14.17;;;1.70;99.90;;;;;;4459134;27;657989;-71
2024/03/19 06:34:53;;;;;;;32.33;14.47;;;1.80;99.90;;;;;;4479586;27;658676;-70
2024/03/19 06:37:40;;;;;;;31.43;14.90;;;1.90;52.40;;;;;;4456482;27;658805;-71
2024/03/19 06:40:28;;;;;;;35.63;16.57;;;2.10;1.00;;;;;;4454602;27;658065;-71
2024/03/19 06:43:15;;;;;;;29.43;13.23;;;2.20;99.90;;;;;;4469725;27;657837;-71
2024/03/19 06:46:02;;;;;;;29.03;13.47;;;2.50;99.90;;;;;;4473060;27;657730;-71
2024/03/19 06:48:50;;;;;;;30.83;14.13;;;2.70;25.40;;;;;;4482015;27;658368;-71
2024/03/19 06:51:39;;;;;;;25.77;13.13;;;2.90;1.00;;;;;;4467061;27;657779;-71
2024/03/19 06:54:26;;;;;;;27.43;14.10;;;3.20;99.90;;;;;;4449954;27;657211;-71
2024/03/19 06:57:13;;;;;;;28.33;13.20;;;3.30;99.90;;;;;;4453403;27;657544;-70
2024/03/19 07:00:00;;;;;;;25.50;12.90;;;3.30;1.00;;;;;;4472324;27;658608;-71
2024/03/19 07:02:49;;;;;;;26.87;12.73;;;3.40;99.90;;;;;;4446250;27;657160;-71
2024/03/19 07:05:36;;;;;;;28.47;13.43;;;3.50;99.90;;;;;;4463494;27;657710;-71
2024/03/19 07:08:25;;;;;;;19.43;9.07;;;3.40;99.90;;;;;;4458508;27;658039;-71
2024/03/19 07:11:13;;;;;;;21.83;10.18;;;3.50;64.70;;;;;;4459155;27;656768;-71
2024/03/19 07:14:00;;;;;;;22.15;9.85;;;3.60;1.00;;;;;;4474310;27;658092;-71
2024/03/19 07:16:48;;;;;;;20.83;10.37;;;3.80;1.00;;;;;;4464376;27;655598;-71
2024/03/19 07:19:35;;;;;;;20.30;10.40;;;3.80;1.00;;;;;;4467555;27;657235;-71
2024/03/19 07:22:25;;;;;;;25.37;11.40;;;3.90;1.00;;;;;;4472236;27;656842;-71
2024/03/19 07:25:13;;;;;;;21.43;10.37;;;4.20;1.00;;;;;;4477894;27;656137;-70
2024/03/19 07:28:01;;;;;;;18.37;9.40;;;4.20;1.00;;;;;;4457381;27;657276;-70
2024/03/19 07:30:48;;;;;;;25.20;12.73;;;4.20;99.90;;;;;;4454906;27;655159;-71
2024/03/19 07:33:35;;;;;;;17.17;9.20;;;4.40;1.00;;;;;;4463397;27;658076;-71
2024/03/19 07:36:22;;;;;;;15.50;8.60;;;4.40;99.90;;;;;;4453758;27;655581;-71
2024/03/19 07:39:12;;;;;;;18.17;9.20;;;4.60;99.90;;;;;;4478148;27;656601;-71
2024/03/19 07:42:02;;;;;;;12.10;5.90;;;4.50;99.90;;;;;;4458269;27;656890;-71
2024/03/19 07:44:51;;;;;;;17.00;8.50;;;4.50;99.90;;;;;;4452269;27;656499;-70
2024/03/19 07:47:38;;;;;;;17.52;8.48;;;4.40;99.90;;;;;;4458012;27;657122;-70
2024/03/19 07:50:28;;;;;;;16.20;8.73;;;4.80;99.90;;;;;;4476284;27;657130;-71
2024/03/19 07:53:16;;;;;;;16.27;7.83;;;4.80;99.90;;;;;;4457500;27;656975;-71
2024/03/19 07:56:03;;;;;;;11.77;6.17;;;4.80;75.10;;;;;;4448670;27;657419;-71
2024/03/19 07:58:52;;;;;;;34.57;13.33;;;5.10;1.00;;;;;;4480622;27;656456;-70
2024/03/19 08:01:39;;;;;;;21.83;9.20;;;5.30;1.00;;;;;;4457409;27;657635;-71
2024/03/19 08:04:26;;;;;;;26.00;10.18;;;5.40;1.00;;;;;;4474340;27;655686;-70
2024/03/19 08:07:13;;;;;;;23.60;10.50;;;5.50;1.00;;;;;;4455164;27;657172;-71
2024/03/19 08:10:01;;;;;;;22.70;9.18;;;5.60;1.00;;;;;;4479103;27;657322;-70
2024/03/19 08:12:48;;;;;;;17.77;8.13;;;5.90;1.00;;;;;;4445369;27;656078;-71
2024/03/19 08:15:36;;;;;;;21.67;8.23;;;6.00;1.00;;;;;;4477174;27;656322;-71
2024/03/19 08:18:23;;;;;;;10.38;5.78;;;5.80;1.00;;;;;;4445155;27;655585;-71
2024/03/19 08:21:11;;;;;;;9.73;5.47;;;5.70;1.00;;;;;;4472602;27;656261;-71
2024/03/19 08:23:58;;;;;;;10.37;5.60;;;5.50;4.90;;;;;;4451087;27;654533;-70
2024/03/19 08:26:46;;;;;;;10.47;6.03;;;5.50;40.70;;;;;;4480679;27;654945;-70
2024/03/19 08:29:33;;;;;;;12.23;6.83;;;5.50;99.90;;;;;;4450506;27;656049;-70
2024/03/19 08:32:22;;;;;;;13.07;7.47;;;4.80;99.90;;;;;;4476532;27;656893;-70
2024/03/19 08:35:10;;;;;;;13.03;7.40;;;4.40;99.90;;;;;;4451009;27;656909;-70
2024/03/19 08:37:57;;;;;;;13.30;6.45;;;4.40;17.50;;;;;;4454188;27;656943;-70
2024/03/19 08:40:45;;;;;;;13.17;6.40;;;4.30;50.70;;;;;;4464329;27;658124;-70
2024/03/19 08:43:32;;;;;;;13.50;7.17;;;4.50;34.80;;;;;;4475947;27;656812;-70
2024/03/19 08:46:20;;;;;;;15.67;6.27;;;4.70;99.50;;;;;;4453876;27;656361;-70
2024/03/19 08:49:10;;;;;;;12.93;6.67;;;4.80;4.00;;;;;;4479359;27;656610;-70
2024/03/19 08:51:57;;;;;;;9.30;5.00;;;4.40;1.00;;;;;;4476645;27;655339;-70
2024/03/19 08:54:44;;;;;;;8.27;4.77;;;4.30;5.90;;;;;;4474729;27;654551;-70
2024/03/19 08:57:32;;;;;;;11.73;5.33;;;4.40;57.50;;;;;;4469526;27;654705;-70
2024/03/19 09:00:19;;;;;;;19.17;6.97;;;4.50;1.00;;;;;;4445181;27;658150;-70
2024/03/19 09:03:08;;;;;;;20.13;6.85;;;4.50;1.00;;;;;;4463613;27;655322;-70
2024/03/19 09:05:57;;;;;;;16.10;5.90;;;4.70;1.00;;;;;;4450339;27;656344;-71
2024/03/19 09:08:44;;;;;;;10.47;4.67;;;5.00;1.00;;;;;;4446921;27;656906;-70
2024/03/19 09:11:32;;;;;;;7.30;4.17;;;5.50;1.00;;;;;;4482383;27;655583;-70
2024/03/19 09:14:20;;;;;;;11.23;4.73;;;5.60;1.00;;;;;;4454720;27;655042;-70
2024/03/19 09:17:07;;;;;;;8.50;4.67;;;6.40;1.00;;;;;;4465426;27;655785;-70
2024/03/19 09:19:56;;;;;;;12.50;5.77;;;6.80;1.00;;;;;;4446283;27;655036;-70
2024/03/19 09:22:44;;;;;;;7.50;4.33;;;6.40;99.90;;;;;;4454337;27;655524;-70
2024/03/19 09:25:32;;;;;;;9.53;4.43;;;6.00;99.90;;;;;;4475377;27;655769;-70
2024/03/19 09:28:19;;;;;;;6.70;3.53;;;5.90;99.90;;;;;;4459230;27;656442;-70
2024/03/19 09:31:06;;;;;;;4.83;2.60;;;5.60;99.90;;;;;;4471678;27;656139;-70
2024/03/19 09:33:53;;;;;;;5.93;3.35;;;5.50;99.90;;;;;;4458594;28;655844;-71
2024/03/19 09:36:41;;;;;;;5.33;2.97;;;5.30;99.90;;;;;;4481243;28;655918;-70
2024/03/19 09:39:29;;;;;;;11.03;5.70;;;5.20;99.90;;;;;;4454444;28;656103;-70
2024/03/19 09:42:17;;;;;;;7.00;3.73;;;5.30;99.90;;;;;;4471013;28;656359;-70
2024/03/19 09:45:05;;;;;;;6.97;3.07;;;5.30;99.90;;;;;;4449807;28;657056;-70
2024/03/19 09:47:53;;;;;;;11.18;5.65;;;5.10;99.90;;;;;;4452331;28;655432;-71
2024/03/19 09:50:41;;;;;;;10.90;5.37;;;5.50;99.90;;;;;;4470666;28;657416;-70
2024/03/19 09:53:30;;;;;;;8.90;3.80;;;5.80;99.90;;;;;;4449960;28;656749;-70
2024/03/19 09:56:21;;;;;;;7.83;4.30;;;6.10;99.90;;;;;;4472908;28;656166;-70
2024/03/19 09:59:08;;;;;;;7.37;4.30;;;7.40;99.90;;;;;;4458151;28;655970;-70
2024/03/19 10:01:56;;;;;;;28.63;9.23;;;7.60;99.90;;;;;;4460736;28;656448;-70
2024/03/19 10:04:46;;;;;;;6.20;3.87;;;8.40;99.90;;;;;;4444094;27;656632;-70
2024/03/19 10:07:34;;;;;;;6.43;3.63;;;7.50;99.90;;;;;;4449172;28;655511;-70
2024/03/19 10:10:21;;;;;;;6.70;3.83;;;8.30;99.90;;;;;;4474503;28;655621;-70
2024/03/19 10:13:12;;;;;;;5.37;3.23;;;8.80;99.90;;;;;;4450276;28;655913;-70
2024/03/19 10:16:00;;;;;;;8.63;4.33;;;9.60;99.90;;;;;;4453260;28;655840;-70
2024/03/19 10:18:47;;;;;;;6.97;3.80;;;9.00;99.90;;;;;;4470698;28;656170;-70
2024/03/19 10:21:34;;;;;;;7.27;3.87;;;7.50;99.90;;;;;;4451513;28;655919;-70
2024/03/19 10:24:22;;;;;;;7.73;4.20;;;8.20;99.90;;;;;;4466441;28;655862;-70
2024/03/19 10:27:09;;;;;;;5.03;3.27;;;8.50;99.90;;;;;;4457437;27;655532;-69
2024/03/19 10:29:58;;;;;;;8.60;4.07;;;7.90;99.90;;;;;;4468514;27;655219;-70
2024/03/19 10:32:46;;;;;;;6.50;3.60;;;8.00;99.90;;;;;;4456099;27;656239;-70
2024/03/19 10:35:33;;;;;;;6.67;3.70;;;9.00;99.90;;;;;;4455862;27;655646;-70
2024/03/19 10:38:21;;;;;;;7.10;4.20;;;8.00;99.90;;;;;;4483791;27;656434;-69
2024/03/19 10:41:08;;;;;;;6.47;3.93;;;8.20;99.90;;;;;;4451870;27;655559;-70
2024/03/19 10:43:59;;;;;;;6.75;4.07;;;7.90;99.90;;;;;;4476869;27;656076;-70
2024/03/19 10:46:49;;;;;;;7.67;3.97;;;9.30;99.90;;;;;;4452880;27;656106;-70
2024/03/19 10:49:37;;;;;;;7.43;4.00;;;8.20;99.90;;;;;;4454604;27;656799;-69
2024/03/19 10:52:25;;;;;;;6.40;3.73;;;7.80;99.90;;;;;;4450293;27;656180;-69
2024/03/19 10:55:13;;;;;;;5.30;3.20;;;7.20;99.90;;;;;;4454170;27;655860;-69
2024/03/19 10:58:01;;;;;;;5.63;3.40;;;6.70;99.90;;;;;;4473171;27;657214;-70
2024/03/19 11:00:48;;;;;;;6.43;3.40;;;6.10;99.90;;;;;;4449843;27;655443;-69
2024/03/19 11:03:40;;;;;;;6.83;3.77;;;5.80;99.90;;;;;;4480275;27;656589;-69
2024/03/19 11:06:28;;;;;;;6.70;3.50;;;6.40;99.90;;;;;;4434674;27;655500;-70
2024/03/19 11:09:19;;;;;;;7.23;3.60;;;7.90;99.90;;;;;;4476057;27;656488;-70
2024/03/19 11:12:07;;;;;;;5.43;3.30;;;9.10;99.90;;;;;;4457068;27;656456;-70
2024/03/19 11:14:54;;;;;;;3.70;2.30;;;9.90;99.90;;;;;;4455624;27;655606;-70
2024/03/19 11:17:41;;;;;;;4.47;2.80;;;10.20;99.90;;;;;;4471924;27;655223;-69
2024/03/19 11:20:31;;;;;;;5.87;3.20;;;10.50;99.90;;;;;;4448895;27;657396;-70
2024/03/19 11:23:20;;;;;;;4.00;1.97;;;10.60;99.90;;;;;;4454484;27;657062;-70
2024/03/19 11:26:07;;;;;;;4.47;2.40;;;10.00;99.90;;;;;;4477058;27;656572;-70
2024/03/19 11:29:01;;;;;;;8.63;4.53;;;9.90;99.90;;;;;;4479847;27;656994;-70
2024/03/19 11:31:49;;;;;;;8.20;3.77;;;10.40;99.90;;;;;;4428241;27;655963;-70
2024/03/19 11:34:36;;;;;;;6.33;3.60;;;11.90;99.90;;;;;;4475568;27;656744;-70
2024/03/19 11:37:25;;;;;;;8.03;3.27;;;11.80;99.90;;;;;;4441561;27;657275;-70
2024/03/19 11:40:13;;;;;;;8.93;4.40;;;11.30;99.90;;;;;;4448681;27;657095;-70
2024/03/19 11:43:00;;;;;;;7.03;2.87;;;10.70;99.90;;;;;;4473128;27;657590;-70
2024/03/19 11:45:48;;;;;;;6.15;3.28;;;9.90;99.90;;;;;;4461191;27;656756;-70
2024/03/19 11:48:35;;;;;;;5.83;3.43;;;10.80;99.90;;;;;;4471329;27;656122;-70
2024/03/19 11:51:22;;;;;;;5.13;3.30;;;11.20;99.90;;;;;;4451342;27;656601;-70
2024/03/19 11:54:11;;;;;;;5.57;3.60;;;10.60;99.90;;;;;;4471258;27;657340;-70
2024/03/19 11:56:58;;;;;;;7.07;3.53;;;9.90;99.90;;;;;;4448735;27;656905;-70
2024/03/19 11:59:45;;;;;;;5.50;2.73;;;11.10;99.90;;;;;;4481496;27;656703;-70
2024/03/19 12:02:33;;;;;;;5.13;3.10;;;10.70;99.90;;;;;;4457832;27;656776;-70
2024/03/19 12:05:24;;;;;;;5.93;3.23;;;10.70;99.90;;;;;;4470518;27;657536;-70
2024/03/19 12:08:11;;;;;;;5.87;2.83;;;10.60;99.90;;;;;;4449012;27;656566;-70
2024/03/19 12:11:07;;;;;;;5.53;3.45;;;11.30;99.90;;;;;;4446101;27;657014;-70
2024/03/19 12:13:54;;;;;;;4.60;3.20;;;10.70;99.90;;;;;;4446506;27;656457;-70
2024/03/19 12:16:42;;;;;;;6.50;3.20;;;10.30;99.90;;;;;;4475663;27;656525;-69
2024/03/19 12:19:29;;;;;;;4.43;2.80;;;10.40;99.90;;;;;;4450780;27;657199;-70
2024/03/19 12:22:17;;;;;;;5.00;2.90;;;11.10;99.90;;;;;;4474453;27;656686;-70
2024/03/19 12:25:06;;;;;;;5.07;3.00;;;12.10;99.90;;;;;;4455318;27;657562;-70
2024/03/19 12:27:54;;;;;;;5.93;3.80;;;11.80;99.90;;;;;;4451116;27;656483;-70
2024/03/19 12:30:42;;;;;;;7.47;4.00;;;12.00;99.90;;;;;;4471387;27;656690;-70
2024/03/19 12:33:37;;;;;;;6.20;3.97;;;9.80;99.90;;;;;;4454716;27;656816;-70
2024/03/19 12:36:25;;;;;;;7.63;3.63;;;10.60;99.90;;;;;;4434704;27;656532;-70
2024/03/19 12:39:13;;;;;;;6.90;3.63;;;11.40;99.90;;;;;;4474837;27;656366;-70
2024/03/19 12:42:00;;;;;;;10.03;4.60;;;13.10;99.90;;;;;;4481922;27;656909;-70
2024/03/19 12:44:50;;;;;;;6.43;3.70;;;14.50;99.90;;;;;;4465442;27;657739;-70
2024/03/19 12:47:38;;;;;;;4.63;3.27;;;13.40;99.90;;;;;;4474985;27;656324;-70
2024/03/19 12:50:26;;;;;;;4.80;3.10;;;12.30;99.90;;;;;;4477680;27;656978;-70
2024/03/19 12:53:14;;;;;;;7.60;4.00;;;11.50;99.90;;;;;;4461243;27;656358;-70
2024/03/19 12:56:01;;;;;;;5.20;2.97;;;10.60;99.90;;;;;;4478969;27;657267;-69
2024/03/19 12:58:48;;;;;;;5.80;3.40;;;11.30;99.90;;;;;;4456065;27;656851;-70
2024/03/19 13:01:37;;;;;;;5.13;3.40;;;11.90;99.90;;;;;;4475649;27;657542;-70
2024/03/19 13:04:24;;;;;;;6.27;3.50;;;11.90;99.90;;;;;;4445552;28;657200;-70
2024/03/19 13:07:11;;;;;;;7.73;3.90;;;13.10;99.90;;;;;;4474147;27;656459;-70
2024/03/19 13:09:58;;;;;;;5.70;3.50;;;12.00;99.90;;;;;;4454270;27;656890;-70
2024/03/19 13:12:46;;;;;;;9.97;3.53;;;11.90;99.90;;;;;;4473591;27;657317;-70
2024/03/19 13:15:33;;;;;;;6.03;3.50;;;12.30;99.90;;;;;;4450857;27;657222;-70
2024/03/19 13:18:22;;;;;;;8.37;3.70;;;12.50;99.90;;;;;;4473831;27;656815;-70
2024/03/19 13:21:09;;;;;;;6.87;3.60;;;12.80;99.90;;;;;;4459325;27;657419;-70
2024/03/19 13:23:56;;;;;;;6.23;2.80;;;12.80;99.90;;;;;;4477049;27;656381;-70
2024/03/19 13:26:44;;;;;;;3.97;2.15;;;12.40;99.90;;;;;;4460164;27;656425;-70
2024/03/19 13:29:31;;;;;;;5.13;3.43;;;11.20;99.90;;;;;;4471302;28;657129;-70
2024/03/19 13:32:18;;;;;;;9.03;3.73;;;10.20;99.90;;;;;;4448360;28;656577;-70
2024/03/19 13:35:08;;;;;;;5.30;3.20;;;11.00;99.90;;;;;;4485158;28;657277;-70
2024/03/19 13:37:55;;;;;;;7.73;3.43;;;12.20;99.90;;;;;;4454146;28;656985;-70
2024/03/19 13:40:42;;;;;;;5.85;3.50;;;11.90;99.90;;;;;;4459631;28;656597;-70
2024/03/19 13:43:30;;;;;;;4.70;3.00;;;12.20;99.90;;;;;;4474366;28;657693;-69
2024/03/19 13:46:17;;;;;;;8.20;3.10;;;12.90;99.90;;;;;;4482610;28;656323;-70
2024/03/19 13:49:04;;;;;;;6.43;3.40;;;12.80;99.90;;;;;;4440843;28;657249;-70
2024/03/19 13:51:53;;;;;;;4.20;2.63;;;13.20;99.90;;;;;;4469948;28;656574;-69
2024/03/19 13:54:40;;;;;;;6.30;3.47;;;13.00;99.90;;;;;;4449422;28;657382;-70
2024/03/19 13:57:28;;;;;;;5.93;3.37;;;12.90;99.90;;;;;;4453130;28;656936;-70
2024/03/19 14:00:17;;;;;;;7.63;3.93;;;14.30;99.90;;;;;;4473657;27;656751;-70
2024/03/19 14:03:05;;;;;;;8.73;3.80;;;13.60;99.90;;;;;;4460992;27;656655;-70
2024/03/19 14:05:53;;;;;;;3.73;2.33;;;13.00;99.90;;;;;;4463502;27;657238;-68
2024/03/19 14:08:41;;;;;;;7.77;3.10;;;11.70;99.90;;;;;;4484806;27;657040;-69
2024/03/19 14:11:28;;;;;;;4.80;2.57;;;11.60;99.90;;;;;;4456436;27;656719;-68
2024/03/19 14:14:16;;;;;;;7.27;3.40;;;11.80;99.90;;;;;;4470394;27;658328;-69
2024/03/19 14:17:03;;;;;;;6.00;3.37;;;12.30;99.90;;;;;;4446620;27;656404;-69
2024/03/19 14:19:50;;;;;;;9.27;3.17;;;13.60;99.90;;;;;;4475982;27;657054;-69